Tropical Cyclones
[Index]
Season 2016-2017 Tropical Cyclone CALEB Track Map
Season 2016-2017 Summaries: [BoM-AU] [JTWC-AU] [JTWC-SIO] [JTWC-SPAC] [JTWC-SH]
<<- Previous TC | BoM 2016-2017 Season | Next TC ->>

click for intensity scale information  Lat/long Grid: Show Hide

 Date Labels: Show Hide

Bureau of Meteorology Tropical Cyclone Data

Name: CALEB
Number: 999 / 201617_23

21 Mar 2017 18:00 UTC to 30 Mar 2017 00:00 UTC

    date/time    lat    long    hPa   cat  kts
2017-03-21 18   10.0    96.0   1007         15          
2017-03-22 00   10.3    97.3   1007         20          
2017-03-22 06   10.3    98.5   1006         25          
2017-03-22 12   11.0    99.3   1004         30          
2017-03-22 18   11.4    99.8   1003         30          
2017-03-23 00   12.2   100.2   1001         35          
2017-03-23 06   12.7   100.6   1000         35          
2017-03-23 12   13.3   100.7   1000         35          
2017-03-23 18   13.3   100.7    998         40          
2017-03-24 00   14.0   100.8    997         40          
2017-03-24 06   14.3   100.8    997         40          
2017-03-24 12   14.6   100.6    994    1    45          
2017-03-24 18   14.9   100.4    994    1    45          
2017-03-25 00   15.3   100.3    996         40          
2017-03-25 06   15.6   100.3    996         40          
2017-03-25 12   15.7   100.1    996         40          
2017-03-25 18   15.8    99.8    996         40          
2017-03-26 00   15.9    99.6    998         40          
2017-03-26 06   16.0    99.3    998         40          
2017-03-26 12   15.7    98.6   1000         35          
2017-03-26 18   15.4    98.1   1002         35          
2017-03-27 00   15.4    97.8   1004         30          
2017-03-27 06   15.4    97.2   1005         30          
2017-03-27 12   15.4    97.0   1005         30          
2017-03-27 18   15.2    96.5   1005         30          
2017-03-28 00   15.3    96.2   1005         30          
2017-03-28 06   15.7    95.8   1005         30          
2017-03-28 12   15.5    95.3   1005         30          
2017-03-28 18   15.6    94.7   1005         30          
2017-03-29 00   15.8    94.1   1005         30          
2017-03-29 06   15.9    93.2   1008         25          
2017-03-29 12   16.5    92.7   1008         25          
2017-03-29 18   16.3    91.8   1008         25          
2017-03-30 00   16.2    91.3   1009         25          
Winds are 10-min average.

Tropical cyclone tracks developed by Michael Bath using data from the Bureau of Meteorology and Google Maps.


Document: tropical_cyclone_caleb.htm
Updated: 17 June 2020
[Australian Severe Weather index] [Copyright Notice] [Email Contacts] [Search This Site] [Privacy Policy]


Main Index Home Page Stock Weather Photos Extreme Storms Discussion Storm News and Storm Chasing Reports Tropical Cyclones / Hurricanes / Typhoons Weather Data and Links Wild Fires / Bushfires Weather Observation Techniques Weather Picture Catalogue Tornado Pictures and Reports Stock Video Footage and DVDs for sale